createdAt,value
2023-05-21T00:01:51.434Z,5.03
2023-05-21T00:06:53.013Z,5.50
2023-05-21T00:11:54.620Z,4.80
2023-05-21T00:16:56.155Z,4.97
2023-05-21T00:21:57.689Z,4.45
2023-05-21T00:26:59.262Z,4.97
2023-05-21T00:32:01.083Z,4.30
2023-05-21T00:37:03.106Z,4.38
2023-05-21T00:42:04.992Z,4.60
2023-05-21T00:47:07.275Z,4.28
2023-05-21T00:52:09.144Z,4.50
2023-05-21T00:57:10.937Z,4.53
2023-05-21T01:02:14.341Z,4.55
2023-05-21T01:07:15.984Z,4.95
2023-05-21T01:12:18.789Z,4.28
2023-05-21T01:17:24.388Z,4.20
2023-05-21T01:22:28.627Z,4.60
2023-05-21T01:27:30.211Z,4.55
2023-05-21T01:32:38.544Z,4.00
2023-05-21T01:37:50.064Z,4.53
2023-05-21T01:42:52.108Z,4.15
2023-05-21T01:47:55.823Z,4.18
2023-05-21T01:52:58.630Z,4.30
2023-05-21T01:58:02.359Z,3.80
2023-05-21T02:03:04.294Z,4.20
2023-05-21T02:08:08.455Z,4.20
2023-05-21T02:13:10.048Z,4.15
2023-05-21T02:18:16.882Z,4.43
2023-05-21T02:23:18.665Z,4.20
2023-05-21T02:28:21.369Z,3.80
2023-05-21T02:33:23.061Z,4.20
2023-05-21T02:38:25.901Z,3.75
2023-05-21T02:43:27.461Z,4.50
2023-05-21T02:48:28.997Z,4.00
2023-05-21T02:53:30.611Z,4.05
2023-05-21T02:58:33.401Z,4.13
2023-05-21T03:03:35.191Z,4.38
2023-05-21T03:08:37.455Z,4.30
2023-05-21T03:13:39.192Z,3.80
2023-05-21T03:18:40.979Z,4.07
2023-05-21T03:23:42.708Z,3.95
2023-05-21T03:28:44.313Z,4.00
2023-05-21T03:33:46.084Z,3.97
2023-05-21T03:38:47.775Z,4.03
2023-05-21T03:43:49.356Z,4.38
2023-05-21T03:48:51.116Z,4.30
2023-05-21T03:53:52.767Z,4.05
2023-05-21T03:58:54.500Z,4.10
2023-05-21T04:03:56.335Z,4.00
2023-05-21T04:08:58.039Z,3.60
2023-05-21T04:13:59.651Z,3.85
2023-05-21T04:19:01.304Z,4.28
2023-05-21T04:24:03.911Z,4.10
2023-05-21T04:29:05.528Z,4.20
2023-05-21T04:34:07.213Z,3.85
2023-05-21T04:39:08.774Z,4.03
2023-05-21T04:44:10.427Z,4.63
2023-05-21T04:49:12.028Z,4.07
2023-05-21T04:54:13.602Z,4.57
2023-05-21T04:59:16.086Z,3.80
2023-05-21T05:04:17.686Z,4.18
2023-05-21T05:09:21.597Z,4.50
2023-05-21T05:14:23.207Z,4.38
2023-05-21T05:19:24.832Z,4.97
2023-05-21T05:24:26.569Z,4.50
2023-05-21T05:29:28.219Z,4.47
2023-05-21T05:34:29.842Z,4.65
2023-05-21T05:39:31.395Z,4.82
2023-05-21T05:44:32.973Z,4.75
2023-05-21T05:49:34.580Z,5.28
2023-05-21T05:54:36.155Z,5.38
2023-05-21T05:59:37.788Z,4.90
2023-05-21T06:04:39.362Z,5.07
2023-05-21T06:09:41.024Z,5.97
2023-05-21T06:14:44.993Z,6.05
2023-05-21T06:19:47.040Z,6.50
2023-05-21T06:24:49.822Z,6.03
2023-05-21T06:29:51.490Z,7.00
2023-05-21T06:34:53.084Z,7.07
2023-05-21T06:39:54.716Z,6.85
2023-05-21T06:44:56.323Z,6.97
2023-05-21T06:49:58.803Z,7.68
2023-05-21T06:55:00.512Z,7.32
2023-05-21T07:00:02.101Z,7.95
2023-05-21T07:05:03.754Z,8.18
2023-05-21T07:10:05.959Z,7.28
2023-05-21T07:15:08.108Z,8.38
2023-05-21T07:20:10.272Z,8.13
2023-05-21T07:25:11.956Z,8.02
2023-05-21T07:30:14.692Z,7.60
2023-05-21T07:35:16.423Z,7.28
2023-05-21T07:40:18.260Z,7.15
2023-05-21T07:45:19.968Z,6.78
2023-05-21T07:50:22.411Z,7.70
2023-05-21T07:55:24.031Z,7.80
2023-05-21T08:00:25.867Z,7.20
2023-05-21T08:05:27.421Z,7.10
2023-05-21T08:10:29.012Z,7.35
2023-05-21T08:15:30.726Z,7.80
2023-05-21T08:20:35.408Z,7.00
2023-05-21T08:25:37.168Z,7.50
2023-05-21T08:30:38.954Z,6.47
2023-05-21T08:35:40.553Z,6.25
2023-05-21T08:40:42.111Z,6.90
2023-05-21T08:45:59.353Z,6.57
2023-05-21T08:51:01.388Z,6.38
2023-05-21T08:56:03.343Z,6.22
2023-05-21T09:01:05.528Z,6.22
2023-05-21T09:06:11.144Z,6.13
2023-05-21T09:11:14.193Z,6.40
2023-05-21T09:16:15.913Z,6.32
2023-05-21T09:21:29.546Z,6.32
2023-05-21T09:26:31.294Z,5.88
2023-05-21T09:31:33.021Z,6.57
2023-05-21T09:36:38.478Z,6.25
2023-05-21T09:41:42.402Z,6.28
2023-05-21T09:46:44.028Z,6.65
2023-05-21T09:51:45.797Z,5.85
2023-05-21T09:56:47.400Z,6.15
2023-05-21T10:01:53.026Z,5.93
2023-05-21T10:06:54.777Z,5.50
2023-05-21T10:11:57.423Z,5.25
2023-05-21T10:17:00.540Z,5.95
2023-05-21T10:22:04.457Z,6.40
2023-05-21T10:27:07.472Z,5.40
2023-05-21T10:32:10.025Z,5.63
2023-05-21T10:37:13.220Z,5.72
2023-05-21T10:42:38.008Z,4.90
2023-05-21T10:47:42.691Z,6.07
2023-05-21T10:53:10.696Z,6.03
2023-05-21T10:58:12.442Z,6.53
2023-05-21T11:03:15.639Z,6.50
2023-05-21T11:08:28.120Z,5.88
2023-05-21T11:13:48.893Z,5.53
2023-05-21T11:18:50.481Z,5.28
2023-05-21T11:23:52.661Z,5.30
2023-05-21T11:29:06.608Z,5.10
2023-05-21T11:34:11.246Z,4.72
2023-05-21T11:39:21.727Z,4.22
2023-05-21T11:44:44.124Z,4.80
2023-05-21T11:49:46.739Z,5.05
2023-05-21T11:54:57.952Z,4.57
2023-05-21T12:00:01.565Z,4.80
2023-05-21T12:05:03.237Z,4.43
2023-05-21T12:10:05.619Z,4.53
2023-05-21T12:15:07.744Z,4.70
2023-05-21T12:20:10.819Z,5.00
2023-05-21T12:25:12.469Z,4.82
2023-05-21T12:30:14.736Z,4.03
2023-05-21T12:35:23.387Z,3.97
2023-05-21T12:40:36.976Z,4.38
2023-05-21T12:45:41.773Z,4.10
2023-05-21T12:50:43.523Z,3.78
2023-05-21T12:55:45.074Z,3.83
2023-05-21T13:00:46.786Z,4.38
2023-05-21T13:05:48.397Z,3.85
2023-05-21T13:10:50.060Z,4.22
2023-05-21T13:15:52.614Z,5.18
2023-05-21T13:20:54.219Z,4.10
2023-05-21T13:25:55.795Z,4.57
2023-05-21T13:30:57.343Z,4.78
2023-05-21T13:35:58.934Z,4.90
2023-05-21T13:41:00.531Z,4.82
2023-05-21T13:46:03.043Z,5.07
2023-05-21T13:51:04.756Z,4.78
2023-05-21T13:56:06.492Z,4.50
2023-05-21T14:01:08.177Z,5.05
2023-05-21T14:06:09.770Z,4.88
2023-05-21T14:11:11.838Z,4.72
2023-05-21T14:16:13.522Z,4.25
2023-05-21T14:21:15.344Z,4.68
2023-05-21T14:26:17.446Z,4.57
2023-05-21T14:31:21.620Z,4.70
2023-05-21T14:36:23.199Z,4.78
2023-05-21T14:41:26.818Z,3.85
2023-05-21T14:46:28.414Z,5.55
2023-05-21T14:51:30.004Z,4.30
2023-05-21T14:56:31.562Z,4.13
2023-05-21T15:01:33.330Z,4.57
2023-05-21T15:06:35.077Z,4.38
2023-05-21T15:11:36.829Z,4.40
2023-05-21T15:16:38.592Z,4.55
2023-05-21T15:21:40.234Z,4.53
2023-05-21T15:26:41.836Z,4.75
2023-05-21T15:31:43.491Z,4.60
2023-05-21T15:36:45.100Z,4.45
2023-05-21T15:41:46.909Z,4.55
2023-05-21T15:46:53.837Z,4.68
2023-05-21T15:51:57.602Z,4.18
2023-05-21T15:56:59.464Z,4.03
2023-05-21T16:02:01.549Z,3.55
2023-05-21T16:07:03.252Z,4.03
2023-05-21T16:12:05.264Z,3.70
2023-05-21T16:17:07.206Z,3.50
2023-05-21T16:22:10.628Z,3.50
2023-05-21T16:27:12.884Z,3.10
2023-05-21T16:32:15.155Z,3.35
2023-05-21T16:37:22.736Z,2.78
2023-05-21T16:42:24.977Z,2.70
2023-05-21T16:47:27.207Z,2.67
2023-05-21T16:52:29.448Z,2.83
2023-05-21T16:57:31.754Z,3.33
2023-05-21T17:02:34.601Z,2.80
2023-05-21T17:07:36.981Z,2.72
2023-05-21T17:12:39.579Z,3.05
2023-05-21T17:17:41.914Z,3.10
2023-05-21T17:22:44.275Z,2.70
2023-05-21T17:27:46.550Z,2.80
2023-05-21T17:32:48.844Z,2.58
2023-05-21T17:37:51.269Z,2.50
2023-05-21T17:42:53.612Z,2.80
2023-05-21T17:47:59.594Z,2.72
2023-05-21T17:53:02.630Z,2.90
2023-05-21T17:58:06.358Z,2.97
2023-05-21T18:03:08.841Z,3.28
2023-05-21T18:08:11.268Z,3.10
2023-05-21T18:13:13.599Z,3.35
2023-05-21T18:18:21.372Z,3.67
2023-05-21T18:23:24.054Z,3.30
2023-05-21T18:28:28.143Z,2.90
2023-05-21T18:33:31.799Z,3.45
2023-05-21T18:38:34.489Z,3.10
2023-05-21T18:43:37.644Z,3.40
2023-05-21T18:48:40.026Z,3.28
2023-05-21T18:53:42.411Z,3.17
2023-05-21T18:58:44.737Z,3.40
2023-05-21T19:03:47.198Z,3.75
2023-05-21T19:08:49.600Z,3.72
2023-05-21T19:13:51.918Z,3.53
2023-05-21T19:18:54.358Z,3.67
2023-05-21T19:23:58.982Z,3.78
2023-05-21T19:29:01.692Z,3.65
2023-05-21T19:34:11.057Z,4.20
2023-05-21T19:39:13.510Z,3.50
2023-05-21T19:44:15.992Z,3.90
2023-05-21T19:49:20.501Z,3.90
2023-05-21T19:54:23.704Z,3.42
2023-05-21T19:59:26.962Z,3.92
2023-05-21T20:04:29.285Z,3.17
2023-05-21T20:09:31.802Z,3.60
2023-05-21T20:14:36.529Z,3.67
2023-05-21T20:19:39.231Z,3.78
2023-05-21T20:24:41.865Z,3.45
2023-05-21T20:29:44.158Z,3.88
2023-05-21T20:35:02.194Z,3.88
2023-05-21T20:40:07.644Z,4.28
2023-05-21T20:45:10.859Z,3.95
2023-05-21T20:50:13.120Z,3.88
2023-05-21T20:55:15.353Z,3.72
2023-05-21T21:00:17.302Z,4.38
2023-05-21T21:05:20.048Z,3.78
2023-05-21T21:10:21.637Z,4.10
2023-05-21T21:15:23.347Z,4.07
2023-05-21T21:20:25.034Z,4.25
2023-05-21T21:25:26.601Z,3.97
2023-05-21T21:30:28.181Z,4.32
2023-05-21T21:35:29.844Z,4.30
2023-05-21T21:40:31.459Z,4.47
2023-05-21T21:45:33.052Z,4.45
2023-05-21T21:50:34.710Z,4.18
2023-05-21T21:55:36.908Z,4.55
2023-05-21T22:00:38.799Z,4.53
2023-05-21T22:05:40.721Z,4.15
2023-05-21T22:10:42.603Z,4.43
2023-05-21T22:15:44.203Z,4.18
2023-05-21T22:20:48.753Z,4.85
2023-05-21T22:25:50.347Z,5.22
2023-05-21T22:30:51.992Z,4.45
2023-05-21T22:35:54.521Z,4.90
2023-05-21T22:40:56.604Z,4.60
2023-05-21T22:45:58.257Z,4.95
2023-05-21T22:51:01.952Z,4.70
2023-05-21T22:56:03.748Z,4.45
2023-05-21T23:01:05.390Z,5.10
2023-05-21T23:06:07.091Z,4.45
2023-05-21T23:11:08.675Z,4.72
2023-05-21T23:16:10.383Z,5.10
2023-05-21T23:21:12.171Z,5.05
2023-05-21T23:26:14.034Z,5.20
2023-05-21T23:31:15.754Z,5.10
2023-05-21T23:36:20.605Z,4.82
2023-05-21T23:41:23.107Z,4.80
2023-05-21T23:46:24.700Z,5.20
2023-05-21T23:51:26.418Z,5.07
2023-05-21T23:56:28.006Z,5.95
